Time;durP1;ratioP1;P1;durP2;ratioP2;P2;SDS_P1;SDS_P2;PMS_P1;PMS_P2;Temp;Humidity;BMP_temperature;BMP_pressure;BME280_temperature;BME280_humidity;BME280_pressure;Samples;Min_cycle;Max_cycle;Signal;HPM_P1;HPM_P2
2023/08/20 00:01:30;;;;;;;22.80;12.23;;;15.10;99.90;;;;;;5012068;28;20056;-75
2023/08/20 00:03:57;;;;;;;21.90;11.40;;;15.10;99.90;;;;;;5012353;28;20593;-76
2023/08/20 00:06:23;;;;;;;30.55;11.95;;;15.10;99.90;;;;;;5011487;28;20041;-77
2023/08/20 00:08:49;;;;;;;26.17;10.90;;;15.20;99.90;;;;;;5010463;28;20045;-76
2023/08/20 00:11:15;;;;;;;20.63;10.00;;;15.10;99.90;;;;;;4993436;28;20430;-76
2023/08/20 00:13:41;;;;;;;24.67;9.82;;;15.10;99.90;;;;;;5010055;28;20054;-76
2023/08/20 00:16:08;;;;;;;20.58;8.68;;;15.20;99.90;;;;;;5010294;28;21124;-74
2023/08/20 00:18:34;;;;;;;24.08;8.85;;;15.10;99.90;;;;;;5009388;28;20041;-76
2023/08/20 00:21:00;;;;;;;18.70;7.82;;;15.00;99.90;;;;;;5010866;28;20511;-76
2023/08/20 00:23:26;;;;;;;17.08;7.20;;;14.90;99.90;;;;;;5010610;28;20050;-75
2023/08/20 00:25:52;;;;;;;18.02;7.18;;;15.00;99.90;;;;;;5010922;28;20410;-75
2023/08/20 00:28:20;;;;;;;17.05;6.80;;;14.90;99.90;;;;;;5009589;28;20111;-76
2023/08/20 00:30:46;;;;;;;20.80;7.47;;;15.00;99.90;;;;;;5011302;28;20038;-75
2023/08/20 00:33:12;;;;;;;20.55;7.63;;;15.00;99.90;;;;;;5009782;28;20099;-75
2023/08/20 00:35:37;;;;;;;16.25;5.63;;;14.80;99.90;;;;;;5009400;28;20033;-76
2023/08/20 00:38:03;;;;;;;21.42;6.32;;;14.90;99.90;;;;;;4976309;28;20052;-76
2023/08/20 00:40:31;;;;;;;19.98;6.10;;;14.90;99.90;;;;;;5010841;28;20128;-75
2023/08/20 00:42:56;;;;;;;15.27;5.40;;;14.90;99.90;;;;;;5010758;28;20045;-75
2023/08/20 00:45:23;;;;;;;16.52;5.93;;;14.90;99.90;;;;;;5009607;28;20041;-74
2023/08/20 00:47:49;;;;;;;19.17;6.05;;;14.90;99.90;;;;;;5010810;28;20042;-75
2023/08/20 00:50:15;;;;;;;15.98;5.90;;;14.90;99.90;;;;;;5010431;28;20053;-77
2023/08/20 00:52:41;;;;;;;15.23;6.13;;;15.00;99.90;;;;;;5011108;28;20794;-76
2023/08/20 00:55:12;;;;;;;17.40;6.28;;;15.00;99.90;;;;;;5009273;28;20590;-74
2023/08/20 00:57:39;;;;;;;18.05;5.35;;;14.90;99.90;;;;;;5010077;28;20785;-74
2023/08/20 01:00:08;;;;;;;20.42;7.22;;;15.00;99.90;;;;;;5009919;28;20422;-75
2023/08/20 01:02:34;;;;;;;16.58;6.15;;;14.90;99.90;;;;;;5010697;28;20037;-75
2023/08/20 01:05:01;;;;;;;17.15;6.07;;;14.90;99.90;;;;;;5011179;28;20613;-75
2023/08/20 01:07:56;;;;;;;19.02;7.25;;;14.80;99.90;;;;;;5011784;28;20532;-75
2023/08/20 01:10:42;;;;;;;17.77;6.45;;;14.90;99.90;;;;;;5011243;28;20049;-75
2023/08/20 01:13:08;;;;;;;18.73;6.38;;;14.80;99.90;;;;;;5010256;28;20496;-76
2023/08/20 01:15:34;;;;;;;18.83;6.82;;;14.80;99.90;;;;;;5013489;28;20056;-76
2023/08/20 01:18:00;;;;;;;17.98;7.07;;;14.70;99.90;;;;;;5014002;28;20947;-76
2023/08/20 01:20:32;;;;;;;15.27;6.50;;;14.70;99.90;;;;;;4997873;28;20182;-76
2023/08/20 01:23:10;;;;;;;16.63;6.72;;;14.80;99.90;;;;;;5013607;28;20060;-75
2023/08/20 01:26:10;;;;;;;20.30;6.88;;;14.60;99.90;;;;;;5016676;28;20049;-74
2023/08/20 01:28:37;;;;;;;11.27;7.00;;;14.70;99.90;;;;;;5012748;28;20052;-75
2023/08/20 01:31:03;;;;;;;21.92;7.15;;;14.60;99.90;;;;;;5011069;28;20547;-76
2023/08/20 01:33:30;;;;;;;18.20;6.68;;;14.60;99.90;;;;;;5001467;28;20053;-76
2023/08/20 01:35:55;;;;;;;17.10;7.18;;;14.70;99.90;;;;;;5012145;28;20482;-76
2023/08/20 01:38:22;;;;;;;19.15;7.47;;;14.70;99.90;;;;;;4995514;28;20057;-75
2023/08/20 01:40:48;;;;;;;17.38;6.82;;;14.70;99.90;;;;;;5012939;28;20095;-75
2023/08/20 01:43:14;;;;;;;20.73;7.60;;;14.50;99.90;;;;;;5012721;28;20057;-76
2023/08/20 01:45:39;;;;;;;19.95;7.68;;;14.60;99.90;;;;;;4970850;28;20054;-75
2023/08/20 01:48:05;;;;;;;15.27;7.10;;;14.60;99.90;;;;;;5010855;28;20045;-77
2023/08/20 01:50:32;;;;;;;16.80;7.68;;;14.70;99.90;;;;;;5012690;28;20564;-76
2023/08/20 01:52:58;;;;;;;19.90;7.57;;;14.70;99.90;;;;;;5012518;28;20045;-77
2023/08/20 01:55:24;;;;;;;16.52;8.13;;;14.70;99.90;;;;;;5011747;28;20046;-74
2023/08/20 01:57:49;;;;;;;20.33;7.72;;;14.70;99.90;;;;;;5012069;28;20787;-75
2023/08/20 02:00:15;;;;;;;19.60;8.10;;;14.70;99.90;;;;;;5012344;28;20053;-75
2023/08/20 02:02:41;;;;;;;20.83;7.03;;;14.60;99.90;;;;;;5010241;28;20782;-75
2023/08/20 02:05:07;;;;;;;20.73;6.97;;;14.60;99.90;;;;;;5011167;28;20037;-75
2023/08/20 02:07:33;;;;;;;19.27;8.27;;;14.70;99.90;;;;;;5012250;28;20056;-76
2023/08/20 02:09:59;;;;;;;16.90;7.40;;;14.60;99.90;;;;;;5011911;28;20611;-76
2023/08/20 02:12:26;;;;;;;17.92;7.45;;;14.60;99.90;;;;;;5012075;28;20033;-76
2023/08/20 02:14:52;;;;;;;20.02;7.13;;;14.60;99.90;;;;;;5012363;28;20086;-76
2023/08/20 02:17:17;;;;;;;19.30;7.30;;;14.50;99.90;;;;;;5012239;28;20049;-75
2023/08/20 02:19:43;;;;;;;20.02;7.60;;;14.50;99.90;;;;;;5010713;28;20042;-76
2023/08/20 02:22:09;;;;;;;21.60;7.80;;;14.40;99.90;;;;;;5010921;28;20061;-75
2023/08/20 02:24:34;;;;;;;15.07;7.05;;;14.60;99.90;;;;;;5011593;28;20099;-76
2023/08/20 02:27:00;;;;;;;15.57;7.03;;;14.40;99.90;;;;;;5011074;28;20516;-75
2023/08/20 02:29:26;;;;;;;18.42;7.38;;;14.50;99.90;;;;;;5013979;28;20080;-76
2023/08/20 02:31:51;;;;;;;22.52;8.40;;;14.40;99.90;;;;;;5015203;28;20834;-75
2023/08/20 02:34:17;;;;;;;20.27;7.60;;;14.30;99.90;;;;;;5015104;28;20405;-76
2023/08/20 02:36:43;;;;;;;20.33;7.30;;;14.40;99.90;;;;;;5012963;28;20076;-75
2023/08/20 02:39:08;;;;;;;15.48;7.45;;;14.30;99.90;;;;;;5014525;28;20045;-75
2023/08/20 02:41:38;;;;;;;18.30;7.63;;;14.40;99.90;;;;;;5012706;28;20055;-74
2023/08/20 02:44:04;;;;;;;18.35;8.32;;;14.50;99.90;;;;;;5013823;28;20133;-76
2023/08/20 02:46:29;;;;;;;20.27;8.57;;;14.30;99.90;;;;;;5012401;28;21344;-75
2023/08/20 02:48:55;;;;;;;20.08;8.35;;;14.40;99.90;;;;;;5013772;28;20084;-76
2023/08/20 02:51:21;;;;;;;21.27;8.30;;;14.40;99.90;;;;;;5014431;28;20555;-75
2023/08/20 02:53:47;;;;;;;21.13;7.40;;;14.40;99.90;;;;;;5014876;28;20492;-75
2023/08/20 02:56:12;;;;;;;17.65;6.60;;;14.60;99.90;;;;;;5014395;28;20159;-75
2023/08/20 02:58:38;;;;;;;17.88;7.43;;;14.60;99.90;;;;;;5012347;28;20052;-76
2023/08/20 03:01:04;;;;;;;16.83;7.50;;;14.50;99.90;;;;;;5012323;28;20064;-74
2023/08/20 03:03:29;;;;;;;14.23;7.10;;;14.70;99.90;;;;;;5014754;28;20482;-75
2023/08/20 03:05:55;;;;;;;17.48;7.75;;;14.70;99.90;;;;;;4989018;28;20049;-75
2023/08/20 03:08:21;;;;;;;22.52;8.98;;;14.70;99.90;;;;;;5011758;28;20041;-76
2023/08/20 03:10:46;;;;;;;18.35;8.07;;;14.60;99.90;;;;;;5010982;28;20565;-75
2023/08/20 03:13:12;;;;;;;18.15;8.35;;;14.60;99.90;;;;;;5011785;28;20127;-76
2023/08/20 03:15:38;;;;;;;20.38;8.73;;;14.60;99.90;;;;;;5011878;28;20080;-76
2023/08/20 03:18:04;;;;;;;21.63;9.20;;;14.60;99.90;;;;;;5011568;28;20033;-75
2023/08/20 03:20:31;;;;;;;18.88;9.52;;;14.80;99.90;;;;;;5011353;28;20568;-76
2023/08/20 03:22:58;;;;;;;19.42;9.30;;;14.60;99.90;;;;;;5011982;28;20072;-78
2023/08/20 03:25:23;;;;;;;19.60;9.25;;;14.40;99.90;;;;;;5010759;28;20049;-75
2023/08/20 03:27:51;;;;;;;21.73;10.15;;;14.40;99.90;;;;;;5011499;28;20068;-77
2023/08/20 03:30:17;;;;;;;24.30;11.35;;;14.60;99.90;;;;;;5011091;28;20045;-76
2023/08/20 03:32:42;;;;;;;24.00;12.07;;;14.60;99.90;;;;;;5011133;28;20472;-76
2023/08/20 03:35:08;;;;;;;25.17;11.13;;;14.40;99.90;;;;;;5010039;28;20045;-73
2023/08/20 03:37:34;;;;;;;23.05;12.43;;;14.60;99.90;;;;;;5011996;28;20480;-75
2023/08/20 03:40:00;;;;;;;19.73;12.30;;;14.50;99.90;;;;;;5011364;28;20552;-75
2023/08/20 03:42:25;;;;;;;22.40;11.95;;;14.60;99.90;;;;;;5011296;28;20057;-76
2023/08/20 03:44:51;;;;;;;25.30;12.70;;;14.60;99.90;;;;;;5011036;28;20052;-75
2023/08/20 03:47:20;;;;;;;26.02;12.82;;;14.40;99.90;;;;;;5009021;28;20699;-75
2023/08/20 03:49:47;;;;;;;22.80;12.93;;;14.40;99.90;;;;;;5011414;28;20688;-74
2023/08/20 03:52:13;;;;;;;22.67;13.70;;;14.40;99.90;;;;;;5012788;28;20088;-76
2023/08/20 03:54:39;;;;;;;26.25;14.63;;;14.70;99.90;;;;;;5013728;28;20588;-75
2023/08/20 03:57:04;;;;;;;27.45;14.43;;;14.50;99.90;;;;;;5014172;28;20152;-76
2023/08/20 03:59:30;;;;;;;27.58;14.30;;;14.70;99.90;;;;;;5013821;28;20575;-74
2023/08/20 04:01:57;;;;;;;24.90;14.30;;;14.50;99.90;;;;;;5011262;28;20049;-76
2023/08/20 04:04:22;;;;;;;26.05;14.52;;;14.60;99.90;;;;;;5011204;28;20076;-77
2023/08/20 04:06:48;;;;;;;26.55;14.80;;;14.50;99.90;;;;;;5012426;28;20523;-76
2023/08/20 04:09:14;;;;;;;27.38;14.85;;;14.70;99.90;;;;;;5011869;28;20064;-75
2023/08/20 04:11:39;;;;;;;25.38;14.98;;;14.40;99.90;;;;;;5014437;28;20049;-76
2023/08/20 04:14:05;;;;;;;26.27;15.27;;;14.50;99.90;;;;;;5010970;28;20045;-76
2023/08/20 04:16:31;;;;;;;30.70;15.50;;;14.60;99.90;;;;;;5012728;28;20079;-75
2023/08/20 04:18:56;;;;;;;32.30;16.50;;;14.50;99.90;;;;;;5010430;28;20117;-75
2023/08/20 04:21:22;;;;;;;29.33;16.23;;;14.60;99.90;;;;;;5011931;28;20650;-74
2023/08/20 04:23:48;;;;;;;26.48;15.23;;;14.70;99.90;;;;;;5012976;28;20061;-74
2023/08/20 04:26:14;;;;;;;33.40;16.70;;;14.60;99.90;;;;;;5012251;28;20128;-76
2023/08/20 04:28:39;;;;;;;28.63;16.83;;;14.50;99.90;;;;;;5011216;28;20048;-75
2023/08/20 04:31:05;;;;;;;30.65;16.10;;;14.30;99.90;;;;;;5011462;28;20278;-76
2023/08/20 04:33:31;;;;;;;31.25;16.17;;;14.30;99.90;;;;;;5010641;28;20667;-75
2023/08/20 04:35:56;;;;;;;30.95;16.27;;;14.60;99.90;;;;;;5010411;28;20064;-76
2023/08/20 04:38:22;;;;;;;29.27;17.05;;;14.50;99.90;;;;;;5009607;28;20069;-74
2023/08/20 04:40:49;;;;;;;26.48;15.73;;;14.50;99.90;;;;;;5010356;28;20045;-75
2023/08/20 04:43:15;;;;;;;26.88;16.83;;;14.30;99.90;;;;;;5008883;28;20629;-76
2023/08/20 04:45:42;;;;;;;24.38;15.10;;;14.30;99.90;;;;;;5010809;28;20041;-75
2023/08/20 04:48:08;;;;;;;27.40;15.05;;;14.50;99.90;;;;;;5010258;28;20057;-76
2023/08/20 04:50:34;;;;;;;25.35;15.30;;;14.30;99.90;;;;;;5010834;28;20041;-76
2023/08/20 04:52:59;;;;;;;24.48;16.00;;;14.40;99.90;;;;;;5010582;28;20453;-76
2023/08/20 04:55:28;;;;;;;23.95;15.35;;;14.30;99.90;;;;;;5009713;28;20045;-74
2023/08/20 04:57:54;;;;;;;28.48;17.13;;;14.30;99.90;;;;;;5008775;28;20053;-75
2023/08/20 05:00:21;;;;;;;27.63;16.48;;;14.60;99.90;;;;;;5007743;28;20045;-74
2023/08/20 05:02:47;;;;;;;30.08;17.15;;;14.30;99.90;;;;;;5007792;28;20075;-76
2023/08/20 05:05:12;;;;;;;25.95;16.50;;;14.60;99.90;;;;;;5008763;28;20049;-76
2023/08/20 05:07:38;;;;;;;25.88;14.57;;;14.70;99.90;;;;;;5009504;28;20073;-76
2023/08/20 05:10:04;;;;;;;28.85;15.25;;;14.60;99.90;;;;;;5009567;28;20073;-75
2023/08/20 05:12:30;;;;;;;22.15;13.82;;;14.80;99.90;;;;;;4991420;28;20045;-74
2023/08/20 05:14:56;;;;;;;21.67;14.48;;;14.70;99.90;;;;;;5009789;28;20077;-77
2023/08/20 05:17:22;;;;;;;22.90;13.73;;;14.70;99.90;;;;;;5009283;28;20041;-75
2023/08/20 05:19:47;;;;;;;23.05;12.38;;;14.80;99.90;;;;;;5008251;28;20041;-76
2023/08/20 05:22:13;;;;;;;22.20;12.57;;;14.70;99.90;;;;;;5009154;28;20056;-76
2023/08/20 05:24:39;;;;;;;22.50;12.68;;;14.90;99.90;;;;;;5009112;28;20049;-77
2023/08/20 05:27:05;;;;;;;17.20;11.50;;;15.10;99.90;;;;;;5009834;28;20567;-76
2023/08/20 05:29:31;;;;;;;21.85;11.43;;;15.20;99.90;;;;;;5009122;28;20545;-75
2023/08/20 05:31:57;;;;;;;20.63;12.32;;;15.10;99.90;;;;;;5006272;28;21072;-75
2023/08/20 05:34:22;;;;;;;18.80;11.48;;;15.30;99.90;;;;;;4992381;28;20068;-75
2023/08/20 05:36:48;;;;;;;18.73;9.70;;;15.50;99.90;;;;;;5009028;28;20413;-74
2023/08/20 05:39:14;;;;;;;16.63;9.50;;;15.50;99.90;;;;;;5009140;28;20096;-75
2023/08/20 05:41:39;;;;;;;14.32;7.85;;;15.80;99.90;;;;;;5010017;28;20106;-74
2023/08/20 05:44:05;;;;;;;17.55;8.00;;;15.90;99.90;;;;;;5009433;28;20520;-75
2023/08/20 05:46:31;;;;;;;14.07;6.60;;;16.10;99.90;;;;;;5009702;28;20255;-76
2023/08/20 05:48:56;;;;;;;12.52;6.40;;;16.80;99.90;;;;;;5007376;28;20074;-76
2023/08/20 05:51:22;;;;;;;12.82;4.80;;;16.80;99.90;;;;;;5009993;28;20432;-74
2023/08/20 05:53:48;;;;;;;7.10;4.05;;;17.30;99.90;;;;;;5009715;28;20034;-75
2023/08/20 05:56:13;;;;;;;12.43;4.82;;;17.40;99.90;;;;;;5011916;28;20604;-75
2023/08/20 05:58:39;;;;;;;9.73;4.20;;;17.90;99.90;;;;;;5012123;28;20061;-74
2023/08/20 06:01:05;;;;;;;14.05;4.13;;;18.00;99.90;;;;;;5012390;28;20772;-75
2023/08/20 06:03:30;;;;;;;13.50;4.18;;;18.20;99.90;;;;;;5011677;28;20704;-75
2023/08/20 06:05:59;;;;;;;12.10;3.63;;;18.50;99.90;;;;;;4999159;28;20037;-75
2023/08/20 06:08:25;;;;;;;10.55;2.92;;;18.40;99.90;;;;;;5009733;28;20304;-75
2023/08/20 06:10:51;;;;;;;7.43;2.65;;;18.80;72.90;;;;;;5009594;28;20525;-75
2023/08/20 06:13:16;;;;;;;10.73;2.83;;;19.00;1.00;;;;;;5010035;28;20050;-76
2023/08/20 06:15:42;;;;;;;12.15;3.03;;;19.10;1.00;;;;;;4999910;28;20052;-75
2023/08/20 06:18:08;;;;;;;8.35;2.40;;;19.10;1.00;;;;;;4974750;28;20620;-76
2023/08/20 06:20:33;;;;;;;8.32;2.35;;;19.20;99.90;;;;;;5011249;28;20121;-75
2023/08/20 06:22:59;;;;;;;11.40;3.33;;;19.50;99.90;;;;;;5009846;28;20064;-75
2023/08/20 06:25:25;;;;;;;11.38;2.80;;;19.50;99.90;;;;;;4965303;28;20053;-76
2023/08/20 06:27:51;;;;;;;7.65;2.42;;;19.40;99.90;;;;;;5008425;28;20525;-75
2023/08/20 06:30:16;;;;;;;8.65;2.58;;;19.80;99.90;;;;;;5008460;28;20554;-76
2023/08/20 06:32:45;;;;;;;8.52;2.60;;;20.00;99.90;;;;;;5008617;28;20041;-75
2023/08/20 06:35:11;;;;;;;4.35;1.90;;;20.20;99.90;;;;;;5008104;28;20528;-74
2023/08/20 06:37:40;;;;;;;7.70;2.40;;;20.20;99.90;;;;;;5008391;28;20128;-74
2023/08/20 06:40:06;;;;;;;9.77;2.65;;;20.40;99.90;;;;;;5008332;28;20052;-74
2023/08/20 06:42:32;;;;;;;8.88;2.10;;;20.30;99.90;;;;;;4990495;28;20158;-74
2023/08/20 06:44:58;;;;;;;6.88;2.05;;;20.40;67.90;;;;;;5006334;28;20045;-75
2023/08/20 06:47:23;;;;;;;8.50;2.00;;;20.60;99.90;;;;;;5008944;28;20106;-75
2023/08/20 06:49:50;;;;;;;8.82;2.20;;;20.70;99.90;;;;;;5009127;28;20655;-74
2023/08/20 06:52:16;;;;;;;8.27;1.75;;;20.60;1.00;;;;;;5009358;28;20677;-75
2023/08/20 06:54:42;;;;;;;8.23;1.83;;;20.70;1.00;;;;;;4982455;28;20566;-74
2023/08/20 06:57:08;;;;;;;9.65;2.58;;;20.90;31.70;;;;;;5009449;28;20073;-76
2023/08/20 06:59:34;;;;;;;7.88;2.25;;;21.20;16.00;;;;;;5008224;28;20304;-76
2023/08/20 07:02:00;;;;;;;8.63;2.15;;;21.40;1.00;;;;;;5004543;28;20445;-74
2023/08/20 07:04:25;;;;;;;8.38;1.90;;;21.20;99.90;;;;;;5007287;28;20037;-74
2023/08/20 07:06:51;;;;;;;6.90;1.98;;;21.50;1.00;;;;;;5009145;28;20033;-76
2023/08/20 07:09:17;;;;;;;8.45;1.85;;;21.70;1.00;;;;;;5007565;28;20580;-74
2023/08/20 07:11:43;;;;;;;8.80;1.70;;;21.80;99.90;;;;;;5009073;28;20544;-76
2023/08/20 07:14:09;;;;;;;9.15;2.47;;;21.70;99.90;;;;;;5009334;28;20053;-75
2023/08/20 07:16:35;;;;;;;7.80;1.83;;;21.90;99.90;;;;;;5008242;28;20551;-76
2023/08/20 07:19:00;;;;;;;10.07;1.90;;;22.10;99.90;;;;;;5006722;28;20084;-76
2023/08/20 07:21:26;;;;;;;6.55;1.27;;;22.30;99.90;;;;;;5008856;28;20045;-77
2023/08/20 07:23:52;;;;;;;9.98;1.70;;;22.40;99.90;;;;;;5008374;28;20080;-74
2023/08/20 07:26:18;;;;;;;10.32;1.90;;;22.20;99.90;;;;;;5011942;28;20153;-75
2023/08/20 07:29:02;;;;;;;8.70;1.80;;;22.30;99.90;;;;;;5011553;28;20055;-75
2023/08/20 07:31:30;;;;;;;6.60;1.50;;;22.30;99.90;;;;;;5011310;28;20161;-75
2023/08/20 07:33:57;;;;;;;7.82;1.75;;;22.50;99.90;;;;;;5010448;28;20061;-74
2023/08/20 07:36:24;;;;;;;8.25;2.13;;;22.60;99.90;;;;;;5009490;28;20049;-76
2023/08/20 07:38:54;;;;;;;9.30;1.52;;;22.80;98.50;;;;;;5010089;28;20045;-74
2023/08/20 07:41:20;;;;;;;9.80;1.70;;;23.00;99.90;;;;;;5009702;28;20505;-75
2023/08/20 07:43:46;;;;;;;5.47;1.60;;;23.10;99.90;;;;;;5010014;28;20763;-75
2023/08/20 07:46:13;;;;;;;9.70;1.73;;;23.20;53.50;;;;;;5010713;28;20729;-75
2023/08/20 07:48:39;;;;;;;12.30;1.90;;;23.10;61.80;;;;;;4993654;28;20048;-74
2023/08/20 07:51:05;;;;;;;9.90;1.42;;;23.00;44.70;;;;;;5008665;28;20085;-73
2023/08/20 07:53:32;;;;;;;9.32;1.40;;;23.40;58.80;;;;;;5009873;28;20049;-74
2023/08/20 07:55:59;;;;;;;8.00;1.58;;;23.60;45.20;;;;;;5011436;28;21213;-75
2023/08/20 07:58:24;;;;;;;7.43;1.35;;;24.00;11.90;;;;;;5008969;28;20434;-76
2023/08/20 08:00:50;;;;;;;9.48;1.42;;;24.30;1.00;;;;;;5010712;28;20180;-75
2023/08/20 08:03:17;;;;;;;8.05;1.45;;;24.40;1.00;;;;;;5010347;28;20042;-75
2023/08/20 08:05:50;;;;;;;10.05;1.20;;;24.50;99.90;;;;;;5012534;28;20516;-75
2023/08/20 08:08:18;;;;;;;8.32;1.50;;;24.70;99.90;;;;;;5010829;28;20048;-76
2023/08/20 08:10:45;;;;;;;8.15;1.10;;;24.90;99.90;;;;;;5010321;28;20434;-75
2023/08/20 08:13:16;;;;;;;6.72;1.00;;;25.00;99.90;;;;;;5008931;28;20042;-75
2023/08/20 08:15:42;;;;;;;10.52;1.55;;;25.00;99.90;;;;;;5011408;28;20077;-75
2023/08/20 08:18:08;;;;;;;12.57;1.50;;;24.80;99.90;;;;;;5011417;28;20141;-75
2023/08/20 08:20:34;;;;;;;8.90;1.00;;;24.60;99.90;;;;;;5011716;28;20787;-74
2023/08/20 08:23:00;;;;;;;6.43;1.02;;;24.70;99.90;;;;;;5009957;28;20795;-75
2023/08/20 08:25:26;;;;;;;8.70;1.15;;;24.90;99.90;;;;;;5009826;28;20049;-75
2023/08/20 08:27:52;;;;;;;6.25;1.00;;;25.10;99.90;;;;;;5011619;28;20045;-75
2023/08/20 08:30:18;;;;;;;8.07;1.08;;;24.90;99.90;;;;;;5012811;28;20386;-74
2023/08/20 08:32:43;;;;;;;10.73;1.10;;;24.80;99.90;;;;;;5013417;28;20693;-75
2023/08/20 08:35:09;;;;;;;8.45;1.30;;;24.90;99.90;;;;;;4995876;28;20340;-75
2023/08/20 08:37:35;;;;;;;6.72;1.00;;;25.20;99.90;;;;;;5014813;28;20049;-75
2023/08/20 08:40:05;;;;;;;7.82;1.05;;;25.20;99.90;;;;;;5013634;28;20092;-74
2023/08/20 08:42:32;;;;;;;8.07;1.23;;;24.90;99.90;;;;;;5012281;28;20493;-75
2023/08/20 08:44:59;;;;;;;7.57;0.90;;;25.10;99.90;;;;;;5013654;28;20061;-75
2023/08/20 08:47:26;;;;;;;6.97;1.10;;;25.40;99.90;;;;;;5013489;28;20669;-75
2023/08/20 08:49:54;;;;;;;8.48;1.05;;;25.60;99.90;;;;;;4994818;28;20572;-75
2023/08/20 08:52:22;;;;;;;8.10;0.93;;;25.40;99.90;;;;;;5013543;28;20811;-75
2023/08/20 08:54:48;;;;;;;9.32;0.80;;;25.70;99.90;;;;;;5014330;28;20049;-75
2023/08/20 08:57:14;;;;;;;7.25;0.80;;;25.70;99.90;;;;;;5014417;28;20544;-75
2023/08/20 08:59:41;;;;;;;7.13;0.70;;;25.90;82.30;;;;;;5015459;28;20060;-73
2023/08/20 09:02:12;;;;;;;7.03;0.90;;;25.80;80.60;;;;;;5013641;28;20124;-74
2023/08/20 09:04:42;;;;;;;5.50;0.80;;;26.20;18.40;;;;;;5014728;28;20048;-74
2023/08/20 09:07:15;;;;;;;6.90;0.88;;;26.60;13.40;;;;;;5014701;28;20041;-75
2023/08/20 09:09:45;;;;;;;6.97;0.80;;;26.50;1.00;;;;;;5012437;28;20124;-75
2023/08/20 09:12:18;;;;;;;7.15;0.63;;;26.60;1.00;;;;;;5013370;28;20081;-75
2023/08/20 09:14:47;;;;;;;8.15;0.82;;;26.80;1.00;;;;;;5012618;28;20124;-75
2023/08/20 09:17:14;;;;;;;4.47;0.50;;;26.80;1.00;;;;;;5012930;28;20515;-75
2023/08/20 09:19:42;;;;;;;5.72;0.80;;;26.80;1.00;;;;;;5012904;28;20466;-75
2023/08/20 09:22:08;;;;;;;7.53;0.60;;;26.80;1.00;;;;;;5010598;28;20061;-75
2023/08/20 09:24:47;;;;;;;6.80;0.63;;;26.50;1.00;;;;;;5010921;28;20049;-75
2023/08/20 09:27:13;;;;;;;5.80;0.50;;;26.30;1.00;;;;;;5012458;28;20053;-75
2023/08/20 09:29:53;;;;;;;5.03;0.68;;;26.30;1.00;;;;;;5013119;28;20046;-75
2023/08/20 09:32:20;;;;;;;4.07;0.40;;;26.20;1.00;;;;;;5012547;28;20520;-75
2023/08/20 09:34:46;;;;;;;4.78;0.52;;;26.40;1.00;;;;;;5012071;28;20128;-76
2023/08/20 09:37:16;;;;;;;3.20;0.30;;;26.50;1.00;;;;;;5011756;28;20462;-75
2023/08/20 09:39:42;;;;;;;2.95;0.40;;;26.30;1.00;;;;;;5012763;28;20049;-75
2023/08/20 09:42:09;;;;;;;3.95;0.50;;;26.50;1.00;;;;;;5012835;28;20053;-75
2023/08/20 09:44:36;;;;;;;6.65;0.50;;;26.50;1.00;;;;;;5010359;28;20427;-75
2023/08/20 09:47:20;;;;;;;5.30;0.60;;;26.60;1.00;;;;;;5010829;28;20464;-74
2023/08/20 09:49:48;;;;;;;2.97;0.35;;;26.80;1.00;;;;;;5012474;28;20235;-75
2023/08/20 09:52:42;;;;;;;4.35;0.57;;;26.90;1.00;;;;;;5012954;28;20046;-74
2023/08/20 09:55:19;;;;;;;3.72;0.52;;;26.80;1.00;;;;;;5008959;28;20053;-75
2023/08/20 09:57:47;;;;;;;3.33;0.30;;;27.10;1.00;;;;;;5011901;28;20073;-75
2023/08/20 10:00:14;;;;;;;6.63;0.88;;;27.00;1.00;;;;;;5012116;28;20433;-74
2023/08/20 10:02:41;;;;;;;4.72;0.50;;;27.00;1.00;;;;;;5010571;28;20092;-76
2023/08/20 10:05:08;;;;;;;5.20;0.50;;;27.00;1.00;;;;;;5010321;28;20053;-75
2023/08/20 10:07:35;;;;;;;4.00;0.40;;;27.10;1.00;;;;;;5010246;28;20065;-75
2023/08/20 10:10:03;;;;;;;5.22;0.52;;;27.40;1.00;;;;;;5011893;28;20577;-75
2023/08/20 10:12:29;;;;;;;5.07;0.50;;;27.40;1.00;;;;;;5010866;28;20064;-74
2023/08/20 10:14:59;;;;;;;4.65;0.50;;;27.80;1.00;;;;;;5011896;28;20695;-75
2023/08/20 10:17:25;;;;;;;8.07;0.50;;;27.90;1.00;;;;;;5002472;28;20056;-76
2023/08/20 10:19:54;;;;;;;5.25;0.50;;;27.80;1.00;;;;;;5011357;28;20053;-74
2023/08/20 10:22:20;;;;;;;6.47;0.80;;;27.60;1.00;;;;;;5011651;28;20049;-74
2023/08/20 10:24:52;;;;;;;5.32;0.50;;;27.70;1.00;;;;;;5012281;28;20076;-74
2023/08/20 10:27:25;;;;;;;;;;;27.80;1.00;;;;;;5012332;28;20057;-75
2023/08/20 10:29:53;;;;;;;7.05;0.70;;;27.60;1.00;;;;;;5011562;28;19925;-74
2023/08/20 10:32:19;;;;;;;5.32;0.70;;;27.10;1.00;;;;;;5013972;28;20045;-75
2023/08/20 10:34:51;;;;;;;5.55;0.55;;;27.10;1.00;;;;;;5013737;28;20050;-74
2023/08/20 10:37:27;;;;;;;4.80;0.50;;;27.10;1.00;;;;;;5014051;28;20049;-75
2023/08/20 10:39:55;;;;;;;7.03;0.50;;;27.00;1.00;;;;;;4996097;28;20132;-74
2023/08/20 10:42:27;;;;;;;4.78;0.60;;;27.40;1.00;;;;;;5012498;28;20567;-75
2023/08/20 10:45:03;;;;;;;6.70;0.75;;;27.00;1.00;;;;;;5013258;28;20049;-75
2023/08/20 10:47:45;;;;;;;3.58;0.40;;;26.80;1.00;;;;;;5013353;28;20611;-75
2023/08/20 10:50:14;;;;;;;3.83;0.40;;;27.30;1.00;;;;;;5013299;28;20045;-73
2023/08/20 10:52:41;;;;;;;5.72;0.40;;;27.20;1.00;;;;;;5013585;28;20128;-76
2023/08/20 10:55:11;;;;;;;5.07;0.50;;;26.90;1.00;;;;;;5013580;28;20057;-75
2023/08/20 10:57:36;;;;;;;4.63;0.45;;;27.30;1.00;;;;;;5011770;28;20072;-74
2023/08/20 11:00:11;;;;;;;5.25;0.63;;;27.40;1.00;;;;;;5011634;28;20049;-75
2023/08/20 11:02:47;;;;;;;5.05;0.60;;;28.00;1.00;;;;;;4994322;28;20352;-74
2023/08/20 11:05:23;;;;;;;3.15;0.35;;;28.20;1.00;;;;;;5011743;28;20053;-76
2023/08/20 11:07:49;;;;;;;7.38;0.55;;;28.70;1.00;;;;;;5012782;28;20056;-75
2023/08/20 11:10:16;;;;;;;5.45;0.50;;;29.00;1.00;;;;;;5013254;28;20045;-75
2023/08/20 11:12:48;;;;;;;4.75;0.55;;;28.90;1.00;;;;;;5011797;28;20103;-74
2023/08/20 11:15:13;;;;;;;3.88;0.45;;;28.80;1.00;;;;;;5011803;28;20077;-75
2023/08/20 11:17:46;;;;;;;5.20;0.50;;;28.90;1.00;;;;;;4996078;28;20682;-74
2023/08/20 11:20:15;;;;;;;4.95;0.60;;;28.80;1.00;;;;;;5013055;28;20555;-76
2023/08/20 11:22:41;;;;;;;4.18;0.40;;;28.70;1.00;;;;;;5010728;28;20069;-75
2023/08/20 11:25:12;;;;;;;3.53;0.50;;;28.20;1.00;;;;;;5009262;28;20377;-75
2023/08/20 11:27:43;;;;;;;4.18;0.60;;;27.70;1.00;;;;;;5009043;28;20045;-75
2023/08/20 11:30:13;;;;;;;5.60;0.57;;;27.60;1.00;;;;;;5007769;28;20612;-74
2023/08/20 11:32:39;;;;;;;4.25;0.40;;;27.70;1.00;;;;;;5009374;28;20053;-75
2023/08/20 11:35:07;;;;;;;4.40;0.50;;;27.90;1.00;;;;;;5008302;28;20045;-74
2023/08/20 11:37:33;;;;;;;4.97;0.50;;;28.00;1.00;;;;;;5009640;28;20531;-76
2023/08/20 11:39:59;;;;;;;4.65;0.50;;;28.20;1.00;;;;;;5008764;28;20053;-74
2023/08/20 11:42:25;;;;;;;4.32;0.32;;;28.20;1.00;;;;;;5008961;28;20946;-75
2023/08/20 11:44:55;;;;;;;3.33;0.40;;;28.70;1.00;;;;;;5010017;28;20421;-75
2023/08/20 11:47:20;;;;;;;6.35;0.50;;;28.60;1.00;;;;;;5009641;28;20099;-75
2023/08/20 11:49:46;;;;;;;3.60;0.40;;;28.60;1.00;;;;;;5011013;28;20037;-75
2023/08/20 11:52:13;;;;;;;5.55;0.50;;;28.60;1.00;;;;;;5009925;28;20052;-75
2023/08/20 11:54:39;;;;;;;4.30;0.40;;;28.70;1.00;;;;;;5009564;28;20041;-72
2023/08/20 11:57:06;;;;;;;3.13;0.32;;;29.00;1.00;;;;;;5008645;28;20589;-73
2023/08/20 11:59:32;;;;;;;3.20;0.32;;;29.30;1.00;;;;;;5008598;28;20110;-74
2023/08/20 12:02:00;;;;;;;2.78;0.30;;;29.60;1.00;;;;;;5010340;28;20049;-77
2023/08/20 12:04:29;;;;;;;4.57;0.50;;;29.40;1.00;;;;;;5009219;28;20053;-76
2023/08/20 12:07:06;;;;;;;2.05;0.30;;;29.60;1.00;;;;;;5008864;28;20053;-77
2023/08/20 12:09:32;;;;;;;3.33;0.30;;;29.80;1.00;;;;;;5009619;28;20087;-77
2023/08/20 12:11:58;;;;;;;3.90;0.30;;;29.90;1.00;;;;;;4995154;28;20052;-76
2023/08/20 12:14:24;;;;;;;2.70;0.30;;;29.90;1.00;;;;;;5004061;28;20667;-79
2023/08/20 12:16:51;;;;;;;3.60;0.40;;;29.60;1.00;;;;;;5013564;28;20394;-77
2023/08/20 12:19:17;;;;;;;2.35;0.30;;;29.70;1.00;;;;;;5012382;28;20152;-77
2023/08/20 12:21:43;;;;;;;1.95;0.20;;;29.80;1.00;;;;;;5014401;28;20049;-77
2023/08/20 12:24:12;;;;;;;1.58;0.28;;;29.70;1.00;;;;;;5004888;28;20058;-77
2023/08/20 12:26:39;;;;;;;3.95;0.47;;;29.60;1.00;;;;;;5013672;28;20049;-77
2023/08/20 12:29:05;;;;;;;2.55;0.30;;;29.70;1.00;;;;;;5012142;28;20092;-76
2023/08/20 12:31:32;;;;;;;4.65;0.32;;;29.90;1.00;;;;;;5012568;28;20131;-77
2023/08/20 12:33:57;;;;;;;2.67;0.20;;;29.80;1.00;;;;;;5010059;28;20606;-77
2023/08/20 12:36:23;;;;;;;2.95;0.30;;;29.90;1.00;;;;;;5013185;28;20038;-77
2023/08/20 12:38:49;;;;;;;2.30;0.30;;;30.00;1.00;;;;;;5012580;28;20073;-75
2023/08/20 12:41:14;;;;;;;2.58;1.13;;;30.00;1.00;;;;;;5011715;28;20053;-77
2023/08/20 12:43:41;;;;;;;3.55;0.50;;;29.90;1.00;;;;;;5010808;28;20045;-75